Time;durP1;ratioP1;P1;durP2;ratioP2;P2;SDS_P1;SDS_P2;PMS_P1;PMS_P2;Temp;Humidity;BMP_temperature;BMP_pressure;BME280_temperature;BME280_humidity;BME280_pressure;Samples;Min_cycle;Max_cycle;Signal;HPM_P1;HPM_P2
2024/03/09 00:00:17;;;;;;;16.30;12.03;;;;;;;7.85;53.32;97629.78;6902567;28;20242;-86
2024/03/09 00:03:38;;;;;;;13.73;10.70;;;;;;;8.47;53.40;97661.97;6902112;28;20212;-87
2024/03/09 00:07:00;;;;;;;13.30;10.40;;;;;;;9.28;51.54;97688.47;6902082;28;20211;-87
2024/03/09 00:10:22;;;;;;;15.80;10.67;;;;;;;9.49;50.07;97664.63;6901335;28;20231;-87
2024/03/09 00:13:46;;;;;;;14.83;10.40;;;;;;;9.15;49.87;97645.59;6902054;28;20234;-87
2024/03/09 00:17:08;;;;;;;17.17;11.43;;;;;;;8.30;52.13;97650.94;6900313;28;20204;-88
2024/03/09 00:20:38;;;;;;;14.93;10.07;;;;;;;8.62;51.73;97649.03;6896372;28;20604;-87
2024/03/09 00:24:04;;;;;;;14.70;10.30;;;;;;;8.77;51.06;97650.31;6902257;28;20246;-86
2024/03/09 00:27:25;;;;;;;14.63;11.07;;;;;;;8.98;50.81;97673.28;6903388;28;20218;-87
2024/03/09 00:30:48;;;;;;;14.17;10.33;;;;;;;9.11;50.68;97703.53;6904862;28;20210;-87
2024/03/09 00:34:13;;;;;;;14.97;10.63;;;;;;;8.96;51.56;97703.06;6908050;28;20214;-87
2024/03/09 00:37:50;;;;;;;15.33;10.67;;;;;;;8.88;51.68;97702.50;6907132;28;20229;-87
2024/03/09 00:45:41;;;;;;;16.33;10.57;;;;;;;8.41;52.48;97669.03;6896242;28;20236;-87
2024/03/09 00:49:05;;;;;;;13.97;10.10;;;;;;;8.17;52.04;97613.44;6906389;28;20717;-87
2024/03/09 00:52:27;;;;;;;13.97;10.33;;;;;;;8.20;53.20;97682.81;6905767;28;20266;-87
2024/03/09 00:59:37;;;;;;;15.43;10.53;;;;;;;7.80;54.51;97680.59;6849716;29;20238;-87
2024/03/09 01:02:59;;;;;;;17.53;11.80;;;;;;;7.61;54.61;97631.34;6849368;29;20218;-87
2024/03/09 01:06:31;;;;;;;16.70;11.00;;;;;;;8.22;54.34;97707.63;6850010;29;20211;-86
2024/03/09 01:09:54;;;;;;;16.50;11.70;;;;;;;8.21;53.85;97663.03;6848336;29;20233;-87
2024/03/09 01:13:15;;;;;;;16.90;11.20;;;;;;;8.27;54.00;97689.00;6847295;29;20216;-87
2024/03/09 01:16:37;;;;;;;16.00;10.80;;;;;;;8.04;54.41;97661.03;6846504;29;20631;-86
2024/03/09 01:19:59;;;;;;;19.33;12.03;;;;;;;8.10;54.40;97644.91;6846391;28;20262;-86
2024/03/09 01:23:22;;;;;;;15.00;11.20;;;;;;;8.12;53.29;97578.38;6846137;29;20256;-87
2024/03/09 01:26:44;;;;;;;18.07;10.87;;;;;;;8.46;52.90;97611.97;6849554;29;20258;-86
2024/03/09 01:30:09;;;;;;;16.07;11.20;;;;;;;7.98;53.51;97609.06;6823218;29;20248;-85
2024/03/09 01:33:42;;;;;;;14.40;10.70;;;;;;;8.05;53.18;97598.25;6820808;29;20213;-87
2024/03/09 01:37:22;;;;;;;16.00;10.40;;;;;;;7.16;54.91;97619.03;6862946;28;20283;-86
2024/03/09 01:41:05;;;;;;;18.10;11.33;;;;;;;7.27;56.43;97668.44;6878000;28;20225;-86
2024/03/09 01:45:10;;;;;;;18.60;11.30;;;;;;;7.86;55.49;97666.31;6812149;28;20296;-87
2024/03/09 02:35:13;;;;;;;12.93;10.87;;;;;;;8.08;54.94;97654.19;6577329;29;20207;-85
2024/03/09 02:38:38;;;;;;;17.93;9.63;;;;;;;7.76;54.95;97637.28;6643201;29;20250;-85
2024/03/09 02:53:55;;;;;;;14.83;9.60;;;;;;;7.50;56.11;97599.88;6661577;29;20228;-86
2024/03/09 02:57:23;;;;;;;14.93;10.17;;;;;;;7.09;56.25;97559.28;6665993;29;20218;-85
2024/03/09 03:00:45;;;;;;;15.43;9.87;;;;;;;7.48;56.04;97564.41;6666747;29;20256;-85
2024/03/09 03:04:08;;;;;;;15.33;10.17;;;;;;;7.95;55.30;97643.56;6671612;29;20214;-87
2024/03/09 03:07:31;;;;;;;13.20;9.67;;;;;;;7.99;55.34;97605.34;6689608;29;20678;-86
2024/03/09 03:10:53;;;;;;;13.53;9.80;;;;;;;7.90;55.41;97625.41;6713287;29;20205;-86
2024/03/09 03:14:16;;;;;;;14.57;10.53;;;;;;;7.48;55.52;97555.56;6818098;29;20577;-84
2024/03/09 03:17:48;;;;;;;17.13;10.73;;;;;;;7.67;55.07;97551.91;6795740;29;20293;-86
2024/03/09 03:21:11;;;;;;;14.63;10.80;;;;;;;7.15;57.70;97614.69;6791795;29;20245;-86
2024/03/09 03:24:38;;;;;;;13.67;10.13;;;;;;;7.39;56.48;97533.53;6791136;29;20217;-86
2024/03/09 03:28:05;;;;;;;14.20;10.57;;;;;;;7.81;55.98;97553.44;6872177;28;20242;-86
2024/03/09 03:32:05;;;;;;;15.03;9.90;;;;;;;7.86;54.25;97527.63;6873875;28;20719;-85
2024/03/09 03:35:39;;;;;;;14.37;10.50;;;;;;;8.32;54.59;97613.16;6899775;28;20225;-85
2024/03/09 03:39:04;;;;;;;17.53;11.70;;;;;;;6.73;57.27;97547.47;6894008;28;20240;-86
2024/03/09 03:42:28;;;;;;;17.80;12.63;;;;;;;6.56;58.65;97500.75;6901050;28;20204;-84
2024/03/09 03:45:49;;;;;;;17.47;11.77;;;;;;;7.53;56.85;97551.16;6878164;28;20215;-85
2024/03/09 03:49:11;;;;;;;17.17;11.40;;;;;;;8.39;55.44;97592.44;6875873;28;20231;-87
2024/03/09 03:52:41;;;;;;;14.50;11.47;;;;;;;7.97;54.66;97510.81;6872795;28;20218;-85
2024/03/09 04:01:02;;;;;;;15.87;10.90;;;;;;;8.92;53.53;97551.38;6791047;29;20237;-85
2024/03/09 04:04:28;;;;;;;15.70;10.90;;;;;;;7.94;55.56;97505.03;6662430;29;20355;-86
2024/03/09 04:12:18;;;;;;;15.03;11.40;;;;;;;8.32;55.03;97560.25;6710488;29;20363;-85
2024/03/09 04:16:25;;;;;;;17.40;12.03;;;;;;;8.57;54.24;97501.13;6703595;29;20220;-85
2024/03/09 04:20:06;;;;;;;16.00;11.93;;;;;;;7.89;54.57;97497.66;6767430;29;20243;-85
2024/03/09 04:28:15;;;;;;;15.17;10.77;;;;;;;9.29;52.42;97556.47;6813902;29;20783;-86
2024/03/09 04:31:47;;;;;;;17.57;11.00;;;;;;;8.91;52.82;97500.50;6817308;29;20265;-86
2024/03/09 04:35:31;;;;;;;18.07;11.93;;;;;;;8.60;52.68;97441.59;6817922;29;20273;-85
2024/03/09 04:47:00;;;;;;;16.60;11.73;;;;;;;8.66;52.38;97511.34;6755320;28;20199;-85
2024/03/09 05:03:17;;;;;;;14.47;11.87;;;;;;;8.98;52.18;97523.59;6671869;29;20219;-85
2024/03/09 05:06:41;;;;;;;16.30;10.93;;;;;;;8.83;51.99;97461.34;6841662;28;20221;-86
2024/03/09 05:10:07;;;;;;;19.60;12.10;;;;;;;8.90;51.44;97478.19;6877968;28;20221;-85
2024/03/09 05:13:29;;;;;;;16.13;12.27;;;;;;;8.21;52.39;97405.31;6877427;28;20216;-86
2024/03/09 05:17:15;;;;;;;17.47;12.37;;;;;;;8.36;51.88;97464.78;6879503;28;20212;-86
2024/03/09 05:20:39;;;;;;;14.33;11.40;;;;;;;7.87;51.92;97354.03;6880955;28;20224;-85
2024/03/09 05:24:03;;;;;;;17.13;11.60;;;;;;;8.14;53.90;97486.91;6879941;28;20237;-87
2024/03/09 05:27:40;;;;;;;19.57;12.43;;;;;;;6.81;55.66;97371.28;6878906;28;20223;-86
2024/03/09 05:31:46;;;;;;;17.40;11.73;;;;;;;7.77;56.03;97490.56;6875837;28;20298;-85
2024/03/09 05:35:21;;;;;;;;;;;;;;;;;;;;;
2024/03/09 05:38:49;;;;;;;18.20;11.20;;;;;;;9.11;51.54;97450.81;6877279;28;20239;-88
2024/03/09 05:45:53;;;;;;;17.87;10.90;;;;;;;8.04;53.29;97393.47;6883516;28;20213;-87
2024/03/09 05:49:51;;;;;;;18.03;11.60;;;;;;;8.36;54.14;97470.16;6897101;28;20465;-87
2024/03/09 05:58:07;;;;;;;14.27;10.83;;;;;;;8.63;52.64;97400.84;6787986;29;20341;-84
2024/03/09 06:01:30;;;;;;;17.67;12.50;;;;;;;8.69;52.38;97477.84;6774825;29;20235;-81
2024/03/09 07:01:20;;;;;;;16.93;13.03;;;;;;;10.93;47.86;97485.31;6903350;23;20274;-80
2024/03/09 07:08:46;;;;;;;18.27;13.17;;;;;;;12.03;44.97;97442.25;6867378;28;20247;-81
2024/03/09 07:12:26;;;;;;;18.10;13.17;;;;;;;11.74;45.46;97470.41;6867251;28;20189;-84
2024/03/09 07:15:50;;;;;;;15.73;12.10;;;;;;;11.74;44.85;97418.31;6865484;28;20201;-81
2024/03/09 07:19:19;;;;;;;17.70;12.67;;;;;;;12.50;43.39;97472.38;6864408;28;20726;-83
2024/03/09 07:22:41;;;;;;;17.57;12.73;;;;;;;11.75;44.90;97446.94;6866414;28;20212;-83
2024/03/09 07:26:03;;;;;;;15.33;11.80;;;;;;;12.39;43.05;97467.91;6863995;28;20217;-83
2024/03/09 07:29:25;;;;;;;16.60;12.37;;;;;;;13.06;42.58;97466.66;6868777;28;20256;-83
2024/03/09 07:32:49;;;;;;;14.07;11.73;;;;;;;12.31;44.58;97465.63;6864353;28;20859;-81
2024/03/09 07:36:12;;;;;;;15.23;12.03;;;;;;;12.85;44.54;97467.44;6873326;28;20248;-82
2024/03/09 07:39:37;;;;;;;16.63;13.13;;;;;;;12.42;43.93;97449.31;6861581;28;20299;-82
2024/03/09 07:42:59;;;;;;;17.30;12.00;;;;;;;12.58;44.43;97466.56;6861691;28;20193;-81
2024/03/09 07:46:20;;;;;;;18.37;13.13;;;;;;;12.37;44.66;97470.84;6866563;28;20241;-82
2024/03/09 07:49:42;;;;;;;17.87;12.43;;;;;;;13.28;42.90;97467.44;6915227;28;20231;-82
2024/03/09 07:53:06;;;;;;;15.90;12.33;;;;;;;13.29;42.76;97474.50;6902192;28;20272;-82
2024/03/09 07:56:28;;;;;;;16.27;12.17;;;;;;;13.61;42.35;97450.97;6869114;28;20208;-83
2024/03/09 07:59:49;;;;;;;15.10;11.57;;;;;;;13.87;41.56;97459.06;6875654;28;20273;-83
2024/03/09 08:03:12;;;;;;;15.70;12.37;;;;;;;11.85;46.01;97471.38;6884733;28;20205;-82
2024/03/09 08:06:37;;;;;;;16.93;12.17;;;;;;;12.46;44.74;97461.25;6880593;28;20206;-81
2024/03/09 08:10:00;;;;;;;14.97;11.20;;;;;;;13.17;43.24;97465.69;6871372;28;20248;-81
2024/03/09 08:13:22;;;;;;;17.50;11.93;;;;;;;13.30;43.94;97465.28;6862921;28;20318;-81
2024/03/09 08:16:45;;;;;;;16.00;11.70;;;;;;;13.27;43.20;97471.22;6864082;28;20218;-80
2024/03/09 08:20:08;;;;;;;14.30;11.67;;;;;;;13.58;42.31;97463.13;6863247;28;20245;-83
2024/03/09 08:23:30;;;;;;;16.13;12.30;;;;;;;14.70;41.01;97458.31;6877386;28;20622;-83
2024/03/09 08:26:53;;;;;;;14.53;12.10;;;;;;;15.01;38.47;97382.22;6889047;28;20206;-81
2024/03/09 08:30:15;;;;;;;17.03;12.53;;;;;;;13.85;42.10;97466.66;6887501;28;20333;-82
2024/03/09 08:33:37;;;;;;;13.03;11.30;;;;;;;13.60;43.49;97471.84;6882256;28;20240;-82
2024/03/09 08:36:59;;;;;;;15.23;11.97;;;;;;;13.99;41.85;97470.56;6869472;28;20730;-81
2024/03/09 08:40:23;;;;;;;16.10;11.57;;;;;;;13.73;41.90;97457.88;6873961;28;20585;-83
2024/03/09 08:43:46;;;;;;;16.30;11.50;;;;;;;13.81;42.78;97459.31;6872199;28;20206;-82
2024/03/09 08:47:09;;;;;;;15.00;11.67;;;;;;;15.28;39.63;97423.53;6866027;28;20216;-81
2024/03/09 08:50:33;;;;;;;16.10;11.57;;;;;;;14.44;40.90;97442.97;6877155;28;20233;-81
2024/03/09 08:53:56;;;;;;;15.80;11.87;;;;;;;14.59;41.14;97460.19;6881634;28;20323;-82
2024/03/09 08:57:18;;;;;;;14.40;11.83;;;;;;;15.39;39.13;97459.72;6884341;28;20729;-81
2024/03/09 09:00:43;;;;;;;15.30;10.83;;;;;;;16.09;38.75;97460.59;6894734;28;20234;-82
2024/03/09 09:04:05;;;;;;;14.20;12.00;;;;;;;15.86;38.48;97447.53;6875294;28;20224;-82
2024/03/09 09:07:26;;;;;;;14.87;11.63;;;;;;;15.29;39.68;97455.00;6883638;28;20674;-82
2024/03/09 09:10:48;;;;;;;12.80;10.73;;;;;;;15.98;38.69;97442.66;6887133;28;20270;-82
2024/03/09 09:14:10;;;;;;;15.07;11.07;;;;;;;17.28;37.43;97442.31;6895535;28;20301;-82
2024/03/09 09:17:33;;;;;;;13.67;11.57;;;;;;;16.32;37.36;97405.63;6894932;28;20217;-82
2024/03/09 09:20:55;;;;;;;14.97;12.27;;;;;;;14.37;42.00;97436.97;6894430;28;20242;-82
2024/03/09 09:24:17;;;;;;;13.03;11.43;;;;;;;14.98;40.92;97445.16;6893384;28;20366;-82
2024/03/09 09:27:38;;;;;;;14.13;11.40;;;;;;;15.62;39.72;97422.00;6896237;28;20229;-82
2024/03/09 09:31:00;;;;;;;14.47;10.83;;;;;;;14.77;41.51;97415.50;6899435;28;20244;-82
2024/03/09 09:34:23;;;;;;;14.67;11.20;;;;;;;15.79;39.06;97427.16;6892131;28;20236;-82
2024/03/09 09:37:45;;;;;;;15.23;11.40;;;;;;;14.78;41.25;97417.94;6893036;28;20237;-82
2024/03/09 09:41:09;;;;;;;12.47;11.17;;;;;;;16.26;38.35;97408.63;6892010;28;20268;-82
2024/03/09 09:44:30;;;;;;;14.53;12.03;;;;;;;16.76;37.91;97403.09;6892518;28;20676;-82
2024/03/09 09:47:52;;;;;;;14.17;11.30;;;;;;;16.10;38.32;97394.25;6891871;28;20797;-84
2024/03/09 09:51:15;;;;;;;13.40;11.27;;;;;;;16.59;37.30;97340.84;6891807;28;20240;-82
2024/03/09 09:54:37;;;;;;;15.70;11.57;;;;;;;16.81;37.45;97387.56;6891488;28;20704;-84
2024/03/09 09:57:59;;;;;;;14.37;10.90;;;;;;;16.85;36.77;97361.41;6893148;28;20228;-84
2024/03/09 10:01:21;;;;;;;14.20;11.27;;;;;;;16.32;38.17;97364.84;6892639;28;20372;-81
2024/03/09 10:04:44;;;;;;;12.87;10.80;;;;;;;16.50;38.55;97377.88;6892467;28;20689;-82
2024/03/09 10:08:09;;;;;;;15.00;13.20;;;;;;;16.26;38.71;97363.22;6890684;28;20265;-80
2024/03/09 10:11:32;;;;;;;11.73;10.27;;;;;;;16.42;39.00;97353.97;6891100;28;20236;-82
2024/03/09 10:14:54;;;;;;;14.00;11.00;;;;;;;16.75;37.51;97358.72;6891458;28;20298;-82
2024/03/09 10:18:16;;;;;;;11.60;10.40;;;;;;;15.98;39.43;97371.97;6891990;28;20360;-83
2024/03/09 10:21:38;;;;;;;11.70;9.27;;;;;;;16.60;37.80;97349.81;6890761;28;20328;-82
2024/03/09 10:25:01;;;;;;;14.00;9.73;;;;;;;16.86;37.24;97371.19;6894093;28;20200;-83
2024/03/09 10:28:23;;;;;;;12.37;9.70;;;;;;;17.18;37.44;97354.41;6892649;28;20262;-80
2024/03/09 10:31:45;;;;;;;12.00;9.70;;;;;;;16.55;37.44;97355.28;6892286;28;20241;-83
2024/03/09 10:35:09;;;;;;;14.77;10.90;;;;;;;16.43;38.70;97344.72;6887782;28;20206;-82
2024/03/09 10:38:31;;;;;;;10.87;9.70;;;;;;;16.38;38.20;97344.72;6862894;28;20239;-82
2024/03/09 10:41:58;;;;;;;12.77;10.37;;;;;;;16.87;37.87;97331.19;6864762;28;20229;-81
2024/03/09 10:45:21;;;;;;;13.80;10.10;;;;;;;17.62;36.13;97334.22;6864603;28;20691;-82
2024/03/09 10:48:44;;;;;;;10.70;9.07;;;;;;;17.35;36.77;97327.63;6865812;28;20233;-86
2024/03/09 10:52:07;;;;;;;11.37;9.47;;;;;;;17.26;36.96;97319.22;6877043;28;20290;-82
2024/03/09 10:55:34;;;;;;;12.57;9.77;;;;;;;18.09;36.04;97287.97;6864521;28;20197;-82
2024/03/09 10:59:00;;;;;;;10.87;9.23;;;;;;;18.09;34.81;97278.97;6878604;28;20698;-82
2024/03/09 11:02:22;;;;;;;10.40;9.13;;;;;;;17.58;35.99;97280.59;6873533;28;20217;-80
2024/03/09 11:05:44;;;;;;;10.30;7.70;;;;;;;17.69;35.21;97282.13;6862822;28;20264;-85
2024/03/09 11:09:10;;;;;;;9.40;7.90;;;;;;;17.71;36.12;97264.38;6884177;28;20872;-83
2024/03/09 11:12:31;;;;;;;9.90;7.97;;;;;;;18.48;34.11;97257.81;6880870;28;20204;-82
2024/03/09 11:15:55;;;;;;;12.80;8.27;;;;;;;18.77;34.38;97262.06;6873563;28;20196;-82
2024/03/09 11:19:16;;;;;;;11.47;8.07;;;;;;;19.26;33.16;97256.97;6882971;28;20220;-82
2024/03/09 11:22:38;;;;;;;10.17;8.40;;;;;;;18.61;34.60;97255.16;6877635;28;20718;-82
2024/03/09 11:26:00;;;;;;;10.60;8.37;;;;;;;17.70;35.33;97208.22;6887499;28;20310;-82
2024/03/09 11:29:23;;;;;;;9.50;7.67;;;;;;;19.19;34.49;97247.47;6889666;28;20262;-82
2024/03/09 11:32:47;;;;;;;10.80;8.63;;;;;;;19.07;34.11;97241.66;6891771;28;20291;-85
2024/03/09 11:36:42;;;;;;;10.33;9.17;;;;;;;20.01;31.98;97239.22;6891453;28;20307;-83
2024/03/09 11:40:11;;;;;;;12.77;10.07;;;;;;;18.60;34.90;97231.72;6890185;28;20318;-81
2024/03/09 11:43:32;;;;;;;11.63;9.47;;;;;;;18.87;34.75;97241.97;6881660;28;20193;-82
2024/03/09 11:46:56;;;;;;;9.10;8.13;;;;;;;18.69;34.16;97229.13;6877909;28;20335;-84
2024/03/09 11:50:21;;;;;;;10.63;9.40;;;;;;;18.08;35.34;97229.06;6889426;28;20229;-84
2024/03/09 11:53:42;;;;;;;11.47;8.67;;;;;;;18.58;34.21;97182.03;6877566;28;20283;-84
2024/03/09 11:57:04;;;;;;;9.97;8.57;;;;;;;18.61;34.37;97225.16;6888318;28;20303;-85
2024/03/09 12:00:27;;;;;;;9.97;8.80;;;;;;;19.04;33.80;97220.44;6875657;28;20324;-84
2024/03/09 12:03:51;;;;;;;7.93;7.13;;;;;;;19.86;32.33;97201.22;6862949;28;20296;-83
2024/03/09 12:07:15;;;;;;;9.10;8.20;;;;;;;19.08;33.94;97202.31;6863360;28;20396;-82
2024/03/09 12:10:37;;;;;;;10.10;7.53;;;;;;;19.38;33.04;97199.09;6867359;28;20664;-83
2024/03/09 12:13:58;;;;;;;10.07;8.23;;;;;;;19.23;33.32;97186.50;6879746;28;20279;-83
2024/03/09 12:17:20;;;;;;;10.43;8.10;;;;;;;19.23;33.76;97153.72;6891173;28;20285;-83
2024/03/09 12:20:43;;;;;;;10.40;7.93;;;;;;;19.42;32.45;97183.72;6889911;28;20275;-83
2024/03/09 12:24:07;;;;;;;8.90;7.07;;;;;;;19.69;32.12;97186.53;6894817;28;20553;-85
2024/03/09 12:27:29;;;;;;;11.60;6.60;;;;;;;20.16;30.51;97183.44;6883544;28;20208;-84
2024/03/09 12:30:51;;;;;;;6.90;5.87;;;;;;;19.43;30.61;97164.31;6880133;28;20287;-83
2024/03/09 12:34:13;;;;;;;8.87;4.80;;;;;;;19.61;28.68;97176.25;6880323;28;20197;-83
2024/03/09 12:37:36;;;;;;;4.67;4.20;;;;;;;19.87;28.46;97174.69;6868231;28;20247;-83
2024/03/09 12:40:58;;;;;;;4.17;3.77;;;;;;;20.37;27.23;97166.28;6875230;28;20280;-84
2024/03/09 12:44:20;;;;;;;4.83;4.37;;;;;;;20.37;26.64;97174.47;6879757;28;20216;-83
2024/03/09 12:47:43;;;;;;;4.80;3.93;;;;;;;21.08;26.01;97166.28;6880160;28;20585;-83
2024/03/09 12:51:05;;;;;;;4.43;4.03;;;;;;;21.36;25.75;97163.06;6875721;28;20232;-83
2024/03/09 12:54:28;;;;;;;4.33;3.93;;;;;;;21.92;25.92;97167.91;6891588;28;20226;-85
2024/03/09 12:57:52;;;;;;;4.90;4.40;;;;;;;21.57;25.99;97124.94;6881042;28;20319;-83
2024/03/09 13:01:19;;;;;;;4.70;4.23;;;;;;;22.06;25.12;97143.91;6893070;28;20666;-82
2024/03/09 13:04:40;;;;;;;4.83;4.27;;;;;;;21.47;25.80;97139.75;6881139;28;20198;-82
2024/03/09 13:08:07;;;;;;;5.10;4.60;;;;;;;21.38;25.08;97110.66;6875327;28;20313;-82
2024/03/09 13:11:28;;;;;;;4.47;3.90;;;;;;;21.75;25.51;97132.97;6866392;28;20662;-82
2024/03/09 13:14:52;;;;;;;5.27;4.77;;;;;;;20.65;26.06;97134.97;6881749;28;20209;-82
2024/03/09 13:18:14;;;;;;;5.37;4.63;;;;;;;20.87;26.16;97118.53;6872782;28;20260;-84
2024/03/09 13:21:37;;;;;;;7.10;5.03;;;;;;;21.17;25.73;97126.84;6885336;28;20759;-83
2024/03/09 13:24:59;;;;;;;5.70;5.00;;;;;;;20.28;27.31;97128.97;6883088;28;20205;-84
2024/03/09 13:28:20;;;;;;;6.23;4.77;;;;;;;20.61;26.32;97119.44;6870772;28;20251;-85
2024/03/09 13:31:45;;;;;;;5.20;4.33;;;;;;;21.52;25.66;97123.16;6891607;28;20241;-81
2024/03/09 13:35:07;;;;;;;5.67;4.83;;;;;;;21.28;25.95;97128.19;6892212;28;20591;-81
2024/03/09 13:38:29;;;;;;;4.70;4.27;;;;;;;21.40;25.43;97117.47;6893562;28;20578;-83
2024/03/09 13:41:51;;;;;;;5.83;4.63;;;;;;;21.49;26.13;97118.28;6892321;28;20232;-82
2024/03/09 13:45:12;;;;;;;5.83;4.37;;;;;;;21.91;25.03;97111.41;6886546;28;20198;-82
2024/03/09 13:48:39;;;;;;;4.17;3.77;;;;;;;21.92;25.12;97124.81;6875382;28;20858;-77
2024/03/09 13:52:02;;;;;;;5.60;3.93;;;;;;;22.55;23.85;97118.84;6899917;28;20642;-79
2024/03/09 13:55:28;;;;;;;5.00;4.20;;;;;;;22.55;24.91;97118.84;6874897;28;20297;-79
2024/03/09 13:58:49;;;;;;;5.93;4.50;;;;;;;22.37;23.80;97104.22;6873354;28;20284;-80
2024/03/09 14:02:12;;;;;;;4.53;3.93;;;;;;;21.68;24.55;97120.84;6891506;28;20275;-80
2024/03/09 14:05:36;;;;;;;4.27;3.80;;;;;;;21.64;24.66;97108.84;6866113;28;20270;-77
2024/03/09 14:08:59;;;;;;;5.97;3.90;;;;;;;21.53;24.39;97105.59;6866277;28;20298;-79
2024/03/09 14:12:21;;;;;;;4.70;3.90;;;;;;;21.22;24.50;97105.91;6865552;28;20209;-79
2024/03/09 14:15:43;;;;;;;6.30;3.60;;;;;;;21.25;24.72;97098.66;6864257;28;20589;-80
2024/03/09 14:19:05;;;;;;;4.73;3.77;;;;;;;21.89;24.77;97098.00;6864346;28;20302;-80
2024/03/09 14:22:28;;;;;;;4.50;4.03;;;;;;;20.54;25.53;97076.09;6865838;28;20299;-79
2024/03/09 14:25:51;;;;;;;4.53;4.10;;;;;;;20.10;26.08;97086.16;6879589;28;20898;-76
2024/03/09 14:29:14;;;;;;;6.03;5.43;;;;;;;20.05;25.72;97056.91;6889180;28;20235;-78
2024/03/09 14:32:39;;;;;;;10.33;9.20;;;;;;;19.68;26.66;97073.59;6892052;28;20708;-79
2024/03/09 14:36:02;;;;;;;6.53;5.77;;;;;;;19.87;26.80;97068.00;6890131;28;20723;-81
2024/03/09 14:39:26;;;;;;;7.97;7.03;;;;;;;19.93;25.96;97072.25;6892161;28;20228;-79
2024/03/09 14:42:48;;;;;;;6.77;5.43;;;;;;;19.71;27.10;97062.06;6892407;28;20225;-80
2024/03/09 14:46:11;;;;;;;5.63;3.83;;;;;;;19.76;26.70;97042.78;6891437;28;20220;-80
2024/03/09 14:49:33;;;;;;;5.60;3.60;;;;;;;20.59;26.29;97058.72;6890205;28;20225;-78
2024/03/09 14:52:55;;;;;;;4.53;3.73;;;;;;;20.50;26.33;97060.56;6892856;28;20656;-80
2024/03/09 14:56:17;;;;;;;6.00;3.83;;;;;;;20.57;26.45;97050.81;6891607;28;20216;-80
2024/03/09 14:59:39;;;;;;;3.67;3.37;;;;;;;21.01;25.82;97044.53;6891413;28;20319;-82
2024/03/09 15:03:01;;;;;;;4.60;3.60;;;;;;;20.31;25.55;97049.81;6891469;28;20320;-85
2024/03/09 15:06:23;;;;;;;4.40;3.70;;;;;;;19.04;27.28;97053.81;6890423;28;20218;-77
2024/03/09 15:09:44;;;;;;;5.33;3.43;;;;;;;19.39;27.37;97025.84;6895215;28;20236;-80
2024/03/09 15:13:07;;;;;;;4.97;3.50;;;;;;;19.08;27.89;97052.88;6893920;28;20717;-79
2024/03/09 15:16:29;;;;;;;4.90;3.73;;;;;;;19.27;27.66;97053.66;6892124;28;20219;-79
2024/03/09 15:19:50;;;;;;;5.50;3.77;;;;;;;19.96;27.03;97044.28;6890312;28;20300;-80
2024/03/09 15:23:12;;;;;;;4.63;3.93;;;;;;;20.51;27.17;97043.03;6891842;28;20313;-80
2024/03/09 15:26:37;;;;;;;6.00;4.30;;;;;;;20.02;26.92;97043.88;6893305;28;20251;-80
2024/03/09 15:30:00;;;;;;;4.00;3.60;;;;;;;20.34;27.42;97040.97;6887627;28;20524;-79
2024/03/09 15:33:23;;;;;;;5.17;4.27;;;;;;;19.22;27.76;97039.28;6889759;28;20204;-80
2024/03/09 15:36:45;;;;;;;4.23;3.73;;;;;;;19.20;29.14;97036.00;6890566;28;20204;-82
2024/03/09 15:40:12;;;;;;;6.07;4.87;;;;;;;19.13;28.98;97041.88;6891092;28;20311;-79
2024/03/09 15:43:35;;;;;;;5.47;4.30;;;;;;;19.35;29.79;97027.53;6888981;28;20273;-79
2024/03/09 15:46:58;;;;;;;5.37;4.50;;;;;;;19.55;29.25;97032.59;6887879;28;20249;-80
2024/03/09 15:50:25;;;;;;;7.53;4.93;;;;;;;19.15;29.52;97027.88;6890083;28;20294;-81
2024/03/09 15:53:47;;;;;;;6.03;4.63;;;;;;;19.08;29.85;97033.78;6893598;28;20224;-80
2024/03/09 15:57:08;;;;;;;5.83;4.90;;;;;;;18.79;30.69;97041.41;6890510;28;20356;-83
2024/03/09 16:00:30;;;;;;;5.90;4.90;;;;;;;18.79;30.98;97035.13;6890543;28;20239;-83
2024/03/09 16:03:53;;;;;;;6.23;5.60;;;;;;;19.34;30.55;97039.59;6891369;28;20236;-84
2024/03/09 16:07:17;;;;;;;5.47;4.97;;;;;;;19.55;30.34;97038.06;6889566;28;20192;-80
2024/03/09 16:10:38;;;;;;;6.07;5.27;;;;;;;19.62;30.53;97030.25;6888599;28;20232;-84
2024/03/09 16:14:01;;;;;;;6.67;6.07;;;;;;;19.67;30.38;97011.00;6889498;28;20295;-83
2024/03/09 16:17:23;;;;;;;6.93;6.23;;;;;;;19.05;32.05;97023.44;6889869;28;20208;-83
2024/03/09 16:20:47;;;;;;;7.90;6.83;;;;;;;19.09;31.98;97027.19;6889236;28;20272;-81
2024/03/09 16:24:11;;;;;;;8.67;7.07;;;;;;;18.27;33.34;97028.03;6896684;28;20683;-82
2024/03/09 16:27:32;;;;;;;6.60;5.90;;;;;;;18.58;33.17;97031.91;6891896;28;20228;-81
2024/03/09 16:30:54;;;;;;;10.00;6.73;;;;;;;19.03;32.46;97031.13;6886890;28;20349;-82
2024/03/09 16:34:17;;;;;;;10.50;6.77;;;;;;;19.36;31.89;97019.03;6865149;28;20293;-83
2024/03/09 16:37:40;;;;;;;7.60;6.40;;;;;;;19.36;31.27;97010.84;6871696;28;20229;-81
2024/03/09 16:41:02;;;;;;;7.10;6.40;;;;;;;19.07;32.33;97025.88;6863650;28;20553;-86
2024/03/09 16:44:24;;;;;;;9.73;7.13;;;;;;;18.51;33.30;97022.53;6864798;28;20225;-81
2024/03/09 16:47:45;;;;;;;8.73;6.80;;;;;;;19.18;32.62;97019.91;6864269;28;20277;-82
2024/03/09 16:51:07;;;;;;;9.43;6.90;;;;;;;18.92;32.53;97016.03;6865623;28;20664;-81
2024/03/09 16:54:30;;;;;;;7.67;6.70;;;;;;;18.55;33.16;97016.16;6871320;28;20664;-83
2024/03/09 16:57:52;;;;;;;8.80;6.57;;;;;;;18.62;32.89;97011.13;6893748;28;20228;-83
2024/03/09 17:01:14;;;;;;;7.53;6.00;;;;;;;18.61;33.01;96990.41;6890819;28;20227;-82
2024/03/09 17:04:35;;;;;;;7.40;6.43;;;;;;;18.58;32.31;97001.09;6892766;28;20672;-83
2024/03/09 17:07:58;;;;;;;7.47;6.53;;;;;;;19.06;32.36;97013.31;6892413;28;20730;-83
2024/03/09 17:11:26;;;;;;;9.33;5.97;;;;;;;18.91;32.18;97019.06;6890474;28;20290;-83
2024/03/09 17:14:49;;;;;;;7.47;6.47;;;;;;;18.79;32.75;96997.72;6893422;28;20230;-83
2024/03/09 17:18:14;;;;;;;8.70;7.00;;;;;;;18.86;32.85;97022.69;6892453;28;21094;-83
2024/03/09 17:21:38;;;;;;;9.93;6.87;;;;;;;18.72;33.15;97024.59;6892974;28;20212;-83
2024/03/09 17:25:00;;;;;;;8.60;7.33;;;;;;;18.60;33.54;97013.34;6891525;28;20199;-85
2024/03/09 17:28:23;;;;;;;8.23;6.73;;;;;;;18.36;34.17;97020.84;6892422;28;20282;-82
2024/03/09 17:31:49;;;;;;;8.00;6.80;;;;;;;18.30;34.19;97015.72;6893321;28;20245;-85
2024/03/09 17:35:12;;;;;;;8.63;6.80;;;;;;;18.35;34.37;97021.13;6894439;28;20185;-84
2024/03/09 17:38:34;;;;;;;7.00;6.07;;;;;;;18.02;34.70;97022.97;6894537;28;20229;-82
2024/03/09 17:41:57;;;;;;;9.13;6.63;;;;;;;18.05;34.79;97021.59;6893950;28;20347;-83
2024/03/09 17:45:22;;;;;;;9.40;6.63;;;;;;;18.21;34.73;97028.44;6895592;28;20207;-83
2024/03/09 17:48:44;;;;;;;7.40;6.63;;;;;;;18.00;35.33;97024.38;6892924;28;20233;-82
2024/03/09 17:52:08;;;;;;;10.33;6.37;;;;;;;18.01;35.53;97029.53;6889397;28;20203;-83
2024/03/09 17:55:30;;;;;;;9.20;6.43;;;;;;;17.84;36.30;97034.69;6891307;28;20268;-83
2024/03/09 17:58:51;;;;;;;10.33;7.23;;;;;;;17.70;37.42;97025.59;6882745;28;20297;-81
2024/03/09 18:02:15;;;;;;;9.87;7.37;;;;;;;17.76;37.48;97024.44;6879760;28;20374;-86
2024/03/09 18:05:37;;;;;;;11.60;7.50;;;;;;;17.44;37.88;97009.88;6887888;28;20208;-82
2024/03/09 18:09:00;;;;;;;11.00;8.50;;;;;;;17.43;38.39;97000.09;6891954;28;20844;-82
2024/03/09 18:12:21;;;;;;;11.30;7.63;;;;;;;16.76;38.51;96892.25;6865682;28;20262;-83
2024/03/09 18:15:43;;;;;;;9.57;7.43;;;;;;;17.28;38.96;96997.53;6864981;28;20298;-85
2024/03/09 18:19:07;;;;;;;13.43;9.40;;;;;;;17.26;38.86;96992.38;6883414;28;20354;-82
2024/03/09 18:22:28;;;;;;;12.17;8.60;;;;;;;16.99;39.65;97004.97;6871710;28;20227;-83
2024/03/09 18:25:51;;;;;;;9.50;7.80;;;;;;;17.14;39.25;97002.88;6873680;28;20207;-83
2024/03/09 18:29:13;;;;;;;10.83;8.10;;;;;;;16.90;39.10;97003.94;6870869;28;20326;-83
2024/03/09 18:32:34;;;;;;;11.00;7.63;;;;;;;17.00;38.63;96998.41;6871735;28;20226;-84
2024/03/09 18:35:57;;;;;;;10.10;8.50;;;;;;;17.00;38.83;96998.41;6896788;28;20663;-84
2024/03/09 18:39:19;;;;;;;9.47;8.23;;;;;;;16.92;39.15;96975.34;6891401;28;20604;-84
2024/03/09 18:42:41;;;;;;;11.03;7.90;;;;;;;16.79;39.80;96957.00;6896398;28;20719;-84